createdAt,value
2018-07-26T00:02:19.837Z,23.74
2018-07-26T00:04:47.037Z,23.64
2018-07-26T00:07:14.263Z,23.54
2018-07-26T00:09:41.447Z,23.47
2018-07-26T00:12:08.619Z,23.41
2018-07-26T00:14:35.861Z,23.36
2018-07-26T00:17:03.175Z,23.27
2018-07-26T00:19:30.410Z,23.31
2018-07-26T00:21:57.634Z,23.26
2018-07-26T00:24:24.752Z,23.24
2018-07-26T00:26:52.025Z,23.20
2018-07-26T00:29:19.288Z,23.20
2018-07-26T00:31:46.466Z,23.11
2018-07-26T00:34:13.887Z,23.07
2018-07-26T00:36:41.125Z,23.07
2018-07-26T00:39:09.793Z,23.03
2018-07-26T00:41:37.194Z,22.91
2018-07-26T00:44:04.389Z,22.84
2018-07-26T00:46:31.589Z,22.83
2018-07-26T00:48:58.868Z,22.80
2018-07-26T00:51:26.128Z,22.80
2018-07-26T00:53:53.370Z,22.71
2018-07-26T00:56:20.746Z,22.71
2018-07-26T00:58:47.995Z,22.67
2018-07-26T01:01:15.230Z,22.60
2018-07-26T01:03:42.598Z,22.54
2018-07-26T01:06:09.905Z,22.53
2018-07-26T01:08:37.100Z,22.39
2018-07-26T01:11:04.414Z,22.32
2018-07-26T01:13:31.641Z,22.35
2018-07-26T01:15:58.813Z,22.34
2018-07-26T01:18:26.035Z,22.31
2018-07-26T01:20:53.271Z,22.28
2018-07-26T01:23:20.511Z,22.21
2018-07-26T01:25:47.724Z,22.18
2018-07-26T01:28:15.059Z,22.12
2018-07-26T01:30:42.654Z,22.05
2018-07-26T01:33:10.050Z,22.11
2018-07-26T01:35:37.253Z,22.00
2018-07-26T01:38:04.483Z,21.97
2018-07-26T01:40:31.726Z,21.97
2018-07-26T01:43:10.699Z,21.90
2018-07-26T01:45:37.855Z,21.78
2018-07-26T01:48:05.087Z,21.89
2018-07-26T01:50:32.266Z,21.85
2018-07-26T01:52:59.471Z,21.96
2018-07-26T01:55:26.689Z,21.87
2018-07-26T01:57:53.922Z,21.80
2018-07-26T02:00:21.173Z,21.47
2018-07-26T02:02:48.427Z,21.67
2018-07-26T02:05:15.723Z,21.62
2018-07-26T02:07:42.946Z,21.63
2018-07-26T02:10:10.110Z,21.66
2018-07-26T02:12:37.377Z,21.61
2018-07-26T02:15:04.726Z,21.61
2018-07-26T02:17:32.077Z,21.63
2018-07-26T02:19:59.288Z,21.60
2018-07-26T02:22:26.514Z,21.50
2018-07-26T02:24:53.721Z,21.47
2018-07-26T02:27:20.957Z,21.44
2018-07-26T02:29:48.121Z,21.41
2018-07-26T02:32:15.347Z,21.38
2018-07-26T02:34:43.961Z,21.35
2018-07-26T02:37:11.181Z,21.31
2018-07-26T02:39:38.440Z,21.30
2018-07-26T02:42:07.504Z,21.31
2018-07-26T02:44:34.689Z,21.29
2018-07-26T02:47:01.918Z,21.30
2018-07-26T02:49:29.067Z,21.30
2018-07-26T02:51:56.339Z,21.31
2018-07-26T02:54:23.541Z,21.21
2018-07-26T02:56:50.752Z,21.13
2018-07-26T02:59:17.974Z,21.11
2018-07-26T03:01:45.092Z,21.05
2018-07-26T03:04:12.384Z,21.02
2018-07-26T03:06:39.620Z,20.91
2018-07-26T03:09:07.730Z,20.89
2018-07-26T03:11:35.024Z,20.78
2018-07-26T03:14:02.276Z,20.75
2018-07-26T03:16:29.440Z,20.73
2018-07-26T03:18:56.636Z,20.70
2018-07-26T03:21:23.924Z,20.68
2018-07-26T03:23:51.138Z,20.63
2018-07-26T03:26:18.425Z,20.63
2018-07-26T03:28:45.684Z,20.60
2018-07-26T03:31:12.926Z,20.66
2018-07-26T03:33:40.156Z,20.64
2018-07-26T03:36:07.377Z,20.66
2018-07-26T03:38:34.588Z,20.68
2018-07-26T03:41:01.809Z,20.62
2018-07-26T03:43:29.127Z,20.54
2018-07-26T03:45:56.360Z,20.50
2018-07-26T03:48:23.610Z,20.43
2018-07-26T03:50:50.747Z,20.38
2018-07-26T03:53:17.979Z,20.36
2018-07-26T03:55:45.249Z,20.32
2018-07-26T03:58:12.404Z,20.31
2018-07-26T04:00:39.632Z,20.27
2018-07-26T04:03:06.914Z,20.24
2018-07-26T04:05:34.156Z,20.22
2018-07-26T04:08:01.289Z,20.19
2018-07-26T04:10:28.499Z,20.14
2018-07-26T04:12:55.699Z,20.21
2018-07-26T04:15:22.896Z,20.25
2018-07-26T04:17:56.499Z,20.29
2018-07-26T04:20:23.706Z,20.34
2018-07-26T04:22:50.904Z,20.34
2018-07-26T04:25:18.142Z,20.34
2018-07-26T04:27:45.347Z,20.33
2018-07-26T04:30:12.551Z,20.40
2018-07-26T04:32:39.762Z,20.40
2018-07-26T04:35:07.057Z,20.45
2018-07-26T04:37:34.284Z,20.46
2018-07-26T04:40:01.465Z,20.45
2018-07-26T04:42:28.696Z,20.54
2018-07-26T04:44:55.858Z,20.47
2018-07-26T04:47:23.037Z,20.51
2018-07-26T04:49:50.289Z,20.60
2018-07-26T04:52:17.509Z,20.52
2018-07-26T04:54:44.709Z,20.32
2018-07-26T04:57:11.897Z,20.55
2018-07-26T04:59:39.079Z,20.62
2018-07-26T05:02:06.320Z,20.68
2018-07-26T05:04:33.502Z,20.71
2018-07-26T05:07:00.748Z,20.78
2018-07-26T05:09:27.978Z,20.60
2018-07-26T05:11:55.258Z,20.18
2018-07-26T05:14:22.505Z,20.37
2018-07-26T05:16:49.763Z,20.48
2018-07-26T05:19:16.998Z,20.60
2018-07-26T05:21:44.299Z,20.72
2018-07-26T05:24:11.543Z,20.92
2018-07-26T05:26:38.926Z,21.07
2018-07-26T05:29:06.295Z,21.22
2018-07-26T05:31:33.511Z,21.38
2018-07-26T05:34:00.745Z,21.49
2018-07-26T05:36:28.065Z,21.54
2018-07-26T05:38:55.287Z,21.61
2018-07-26T05:41:22.536Z,21.74
2018-07-26T05:43:49.782Z,21.84
2018-07-26T05:46:17.077Z,21.96
2018-07-26T05:48:44.290Z,22.16
2018-07-26T05:51:11.448Z,22.23
2018-07-26T05:53:38.658Z,22.43
2018-07-26T05:56:05.932Z,22.58
2018-07-26T05:58:33.094Z,22.77
2018-07-26T06:01:00.295Z,22.90
2018-07-26T06:03:27.428Z,22.97
2018-07-26T06:05:54.635Z,23.06
2018-07-26T06:08:21.918Z,23.08
2018-07-26T06:10:49.135Z,23.15
2018-07-26T06:13:16.321Z,23.30
2018-07-26T06:15:43.608Z,23.44
2018-07-26T06:18:10.808Z,23.50
2018-07-26T06:20:38.109Z,23.65
2018-07-26T06:23:05.389Z,23.85
2018-07-26T06:25:32.596Z,24.02
2018-07-26T06:27:59.921Z,24.13
2018-07-26T06:30:27.146Z,24.21
2018-07-26T06:32:55.179Z,24.28
2018-07-26T06:35:22.426Z,24.40
2018-07-26T06:37:49.666Z,24.55
2018-07-26T06:40:16.862Z,24.70
2018-07-26T06:42:44.023Z,24.94
2018-07-26T06:45:11.236Z,25.17
2018-07-26T06:47:38.685Z,25.40
2018-07-26T06:50:07.498Z,25.63
2018-07-26T06:52:34.848Z,25.83
2018-07-26T06:55:02.164Z,25.96
2018-07-26T06:57:29.474Z,26.16
2018-07-26T06:59:56.834Z,26.33
2018-07-26T07:02:24.099Z,26.57
2018-07-26T07:04:51.268Z,26.76
2018-07-26T07:07:18.638Z,26.96
2018-07-26T07:09:45.775Z,27.24
2018-07-26T07:12:13.078Z,27.47
2018-07-26T07:14:40.290Z,27.47
2018-07-26T07:17:07.774Z,27.78
2018-07-26T07:19:35.014Z,28.03
2018-07-26T07:22:02.243Z,28.24
2018-07-26T07:24:29.437Z,28.15
2018-07-26T07:26:56.654Z,28.32
2018-07-26T07:29:23.898Z,28.46
2018-07-26T07:31:51.248Z,28.66
2018-07-26T07:34:18.420Z,28.77
2018-07-26T07:36:45.750Z,28.92
2018-07-26T07:39:13.840Z,29.03
2018-07-26T07:41:41.193Z,29.12
2018-07-26T07:44:08.958Z,29.06
2018-07-26T07:46:36.254Z,29.02
2018-07-26T07:49:03.467Z,28.63
2018-07-26T07:51:30.962Z,28.40
2018-07-26T07:53:58.247Z,28.57
2018-07-26T07:56:25.506Z,28.89
2018-07-26T07:58:52.724Z,29.10
2018-07-26T08:01:19.953Z,29.43
2018-07-26T08:03:47.151Z,29.74
2018-07-26T08:06:14.454Z,29.70
2018-07-26T08:08:41.635Z,29.59
2018-07-26T08:11:08.886Z,29.54
2018-07-26T08:13:36.034Z,29.48
2018-07-26T08:16:03.323Z,29.48
2018-07-26T08:18:30.666Z,29.68
2018-07-26T08:20:57.860Z,29.83
2018-07-26T08:23:25.160Z,29.76
2018-07-26T08:25:52.507Z,29.73
2018-07-26T08:28:19.764Z,30.12
2018-07-26T08:30:47.871Z,30.06
2018-07-26T08:33:15.212Z,30.29
2018-07-26T08:35:42.452Z,30.29
2018-07-26T08:38:09.710Z,30.47
2018-07-26T08:40:37.018Z,30.60
2018-07-26T08:43:04.255Z,30.71
2018-07-26T08:45:31.406Z,30.76
2018-07-26T08:47:58.623Z,30.91
2018-07-26T08:50:25.970Z,30.88
2018-07-26T08:52:53.115Z,31.02
2018-07-26T08:55:20.343Z,31.12
2018-07-26T08:57:47.512Z,31.44
2018-07-26T09:00:17.685Z,31.66
2018-07-26T09:02:45.827Z,31.67
2018-07-26T09:05:13.250Z,31.58
2018-07-26T09:07:40.504Z,31.36
2018-07-26T09:10:07.670Z,30.93
2018-07-26T09:12:35.005Z,31.13
2018-07-26T09:15:02.549Z,31.26
2018-07-26T09:17:29.798Z,31.72
2018-07-26T09:19:56.985Z,31.86
2018-07-26T09:22:24.279Z,31.87
2018-07-26T09:24:51.529Z,32.31
2018-07-26T09:27:18.814Z,32.44
2018-07-26T09:29:46.009Z,31.71
2018-07-26T09:32:13.219Z,31.96
2018-07-26T09:34:40.438Z,32.04
2018-07-26T09:37:07.655Z,32.47
2018-07-26T09:39:34.875Z,32.48
2018-07-26T09:42:02.195Z,32.52
2018-07-26T09:44:29.431Z,32.63
2018-07-26T09:46:56.627Z,32.73
2018-07-26T09:49:23.895Z,32.94
2018-07-26T09:51:51.128Z,33.09
2018-07-26T09:54:18.397Z,33.34
2018-07-26T09:56:45.681Z,33.22
2018-07-26T09:59:12.952Z,33.29
2018-07-26T10:01:40.941Z,32.70
2018-07-26T10:04:08.287Z,31.81
2018-07-26T10:06:35.539Z,32.37
2018-07-26T10:09:05.085Z,31.69
2018-07-26T10:11:32.365Z,31.25
2018-07-26T10:13:59.642Z,30.87
2018-07-26T10:16:26.787Z,30.76
2018-07-26T10:18:54.037Z,30.75
2018-07-26T10:21:21.339Z,30.76
2018-07-26T10:23:48.593Z,30.17
2018-07-26T10:26:15.858Z,30.30
2018-07-26T10:28:42.986Z,30.86
2018-07-26T10:31:10.173Z,31.16
2018-07-26T10:33:37.402Z,31.73
2018-07-26T10:36:04.802Z,32.35
2018-07-26T10:38:32.037Z,33.04
2018-07-26T10:40:59.323Z,33.58
2018-07-26T10:43:26.628Z,34.13
2018-07-26T10:45:53.812Z,34.32
2018-07-26T10:48:21.208Z,32.91
2018-07-26T10:50:48.447Z,32.31
2018-07-26T10:53:15.677Z,32.69
2018-07-26T10:55:42.973Z,32.59
2018-07-26T10:58:10.220Z,32.54
2018-07-26T11:00:37.455Z,32.61
2018-07-26T11:03:04.864Z,32.56
2018-07-26T11:05:32.159Z,32.32
2018-07-26T11:07:59.341Z,32.71
2018-07-26T11:10:26.551Z,33.17
2018-07-26T11:12:53.822Z,33.94
2018-07-26T11:15:27.918Z,34.44
2018-07-26T11:17:55.269Z,34.66
2018-07-26T11:20:22.589Z,34.84
2018-07-26T11:22:49.762Z,34.43
2018-07-26T11:25:17.089Z,33.94
2018-07-26T11:27:44.408Z,32.37
2018-07-26T11:30:11.796Z,33.01
2018-07-26T11:32:39.383Z,33.54
2018-07-26T11:35:06.617Z,34.22
2018-07-26T11:37:33.866Z,33.93
2018-07-26T11:40:01.170Z,34.06
2018-07-26T11:42:28.481Z,34.33
2018-07-26T11:44:55.692Z,34.26
2018-07-26T11:47:22.996Z,33.82
2018-07-26T11:49:50.166Z,33.23
2018-07-26T11:52:17.452Z,33.86
2018-07-26T11:54:44.779Z,34.13
2018-07-26T11:57:12.127Z,34.28
2018-07-26T11:59:39.485Z,34.54
2018-07-26T12:02:06.740Z,34.60
2018-07-26T12:04:34.014Z,34.90
2018-07-26T12:07:01.316Z,34.54
2018-07-26T12:09:28.621Z,34.00
2018-07-26T12:11:55.922Z,34.80
2018-07-26T12:14:23.240Z,35.76
2018-07-26T12:16:50.439Z,35.50
2018-07-26T12:19:17.638Z,35.95
2018-07-26T12:21:44.869Z,36.15
2018-07-26T12:24:12.144Z,36.43
2018-07-26T12:26:39.380Z,36.19
2018-07-26T12:29:06.782Z,36.03
2018-07-26T12:31:33.992Z,36.57
2018-07-26T12:34:01.414Z,36.74
2018-07-26T12:36:28.798Z,36.65
2018-07-26T12:38:56.157Z,36.37
2018-07-26T12:41:23.460Z,35.05
2018-07-26T12:43:50.747Z,34.99
2018-07-26T12:46:18.110Z,35.44
2018-07-26T12:48:45.497Z,35.47
2018-07-26T12:51:12.879Z,34.74
2018-07-26T12:53:40.133Z,35.40
2018-07-26T12:56:07.528Z,36.03
2018-07-26T12:58:34.724Z,36.28
2018-07-26T13:01:01.992Z,36.53
2018-07-26T13:03:29.281Z,35.07
2018-07-26T13:05:56.606Z,34.19
2018-07-26T13:08:23.936Z,33.88
2018-07-26T13:10:51.337Z,34.77
2018-07-26T13:13:18.865Z,35.90
2018-07-26T13:15:46.216Z,36.34
2018-07-26T13:18:13.582Z,36.06
2018-07-26T13:20:40.980Z,36.06
2018-07-26T13:23:08.413Z,36.81
2018-07-26T13:25:35.746Z,36.95
2018-07-26T13:28:03.231Z,36.36
2018-07-26T13:30:30.602Z,36.17
2018-07-26T13:32:58.001Z,35.97
2018-07-26T13:35:25.563Z,36.33
2018-07-26T13:37:53.067Z,36.71
2018-07-26T13:40:20.376Z,36.85
2018-07-26T13:42:47.588Z,35.91
2018-07-26T13:45:14.906Z,35.29
2018-07-26T13:47:42.208Z,35.49
2018-07-26T13:50:09.329Z,35.41
2018-07-26T13:52:36.641Z,35.70
2018-07-26T13:55:04.121Z,36.12
2018-07-26T13:57:31.417Z,36.45
2018-07-26T13:59:58.705Z,35.84
2018-07-26T14:02:25.974Z,35.21
2018-07-26T14:04:53.281Z,34.74
2018-07-26T14:07:20.713Z,34.42
2018-07-26T14:09:47.882Z,34.75
2018-07-26T14:12:15.181Z,35.27
2018-07-26T14:14:42.472Z,35.94
2018-07-26T14:17:09.808Z,36.59
2018-07-26T14:19:37.183Z,36.45
2018-07-26T14:22:04.568Z,35.76
2018-07-26T14:24:31.780Z,35.73
2018-07-26T14:26:59.071Z,35.27
2018-07-26T14:29:26.392Z,35.29
2018-07-26T14:31:53.595Z,35.56
2018-07-26T14:34:20.980Z,35.54
2018-07-26T14:36:48.293Z,35.30
2018-07-26T14:39:15.547Z,35.03
2018-07-26T14:41:42.748Z,34.80
2018-07-26T14:44:10.370Z,34.53
2018-07-26T14:46:38.033Z,34.75
2018-07-26T14:49:05.345Z,35.28
2018-07-26T14:51:33.014Z,35.21
2018-07-26T14:54:00.271Z,34.21
2018-07-26T14:56:27.642Z,33.94
2018-07-26T14:58:54.867Z,34.34
2018-07-26T15:01:22.195Z,33.60
2018-07-26T15:03:49.419Z,33.71
2018-07-26T15:06:16.733Z,34.00
2018-07-26T15:08:44.023Z,34.93
2018-07-26T15:11:11.263Z,35.59
2018-07-26T15:13:38.446Z,35.89
2018-07-26T15:16:05.768Z,35.51
2018-07-26T15:18:33.022Z,35.81
2018-07-26T15:21:00.325Z,36.18
2018-07-26T15:23:27.527Z,36.22
2018-07-26T15:25:54.735Z,36.58
2018-07-26T15:28:21.961Z,36.64
2018-07-26T15:30:49.194Z,36.75
2018-07-26T15:33:16.441Z,36.56
2018-07-26T15:35:43.702Z,36.71
2018-07-26T15:38:10.951Z,36.87
2018-07-26T15:40:38.271Z,36.49
2018-07-26T15:43:06.162Z,36.54
2018-07-26T15:45:33.373Z,35.44
2018-07-26T15:48:00.614Z,34.95
2018-07-26T15:50:27.871Z,35.19
2018-07-26T15:52:55.096Z,35.05
2018-07-26T15:55:22.372Z,34.37
2018-07-26T15:57:49.620Z,33.99
2018-07-26T16:00:16.859Z,33.81
2018-07-26T16:02:44.143Z,33.74
2018-07-26T16:05:11.421Z,33.80
2018-07-26T16:07:38.648Z,33.92
2018-07-26T16:10:06.798Z,34.28
2018-07-26T16:12:34.095Z,34.45
2018-07-26T16:15:01.454Z,34.36
2018-07-26T16:17:29.360Z,34.46
2018-07-26T16:19:56.524Z,34.60
2018-07-26T16:22:24.130Z,34.77
2018-07-26T16:24:51.307Z,34.81
2018-07-26T16:27:18.584Z,34.76
2018-07-26T16:29:45.853Z,34.78
2018-07-26T16:32:13.039Z,34.77
2018-07-26T16:34:40.216Z,34.80
2018-07-26T16:37:07.424Z,34.60
2018-07-26T16:39:34.686Z,34.53
2018-07-26T16:42:02.013Z,34.46
2018-07-26T16:44:29.270Z,34.53
2018-07-26T16:46:56.512Z,34.35
2018-07-26T16:49:23.809Z,33.98
2018-07-26T16:51:51.090Z,33.68
2018-07-26T16:54:19.707Z,33.57
2018-07-26T16:56:47.377Z,33.50
2018-07-26T16:59:14.635Z,33.43
2018-07-26T17:01:41.810Z,32.53
2018-07-26T17:04:09.142Z,32.56
2018-07-26T17:06:36.331Z,32.80
2018-07-26T17:09:07.026Z,32.93
2018-07-26T17:11:34.292Z,32.96
2018-07-26T17:14:01.598Z,32.98
2018-07-26T17:16:33.533Z,32.93
2018-07-26T17:19:01.132Z,32.75
2018-07-26T17:21:28.377Z,32.68
2018-07-26T17:23:56.069Z,32.61
2018-07-26T17:26:23.368Z,32.54
2018-07-26T17:28:50.616Z,32.22
2018-07-26T17:31:17.846Z,32.12
2018-07-26T17:33:45.070Z,32.15
2018-07-26T17:36:12.284Z,32.09
2018-07-26T17:38:39.493Z,32.12
2018-07-26T17:41:06.801Z,32.07
2018-07-26T17:43:34.052Z,32.02
2018-07-26T17:46:01.342Z,31.90
2018-07-26T17:48:28.664Z,31.92
2018-07-26T17:50:55.935Z,31.84
2018-07-26T17:53:23.151Z,31.76
2018-07-26T17:55:52.565Z,31.69
2018-07-26T17:58:20.330Z,31.67
2018-07-26T18:00:47.541Z,31.57
2018-07-26T18:03:14.781Z,31.56
2018-07-26T18:05:42.019Z,31.58
2018-07-26T18:08:09.291Z,31.53
2018-07-26T18:10:36.734Z,31.39
2018-07-26T18:13:03.883Z,31.18
2018-07-26T18:15:31.104Z,31.04
2018-07-26T18:17:58.276Z,31.08
2018-07-26T18:20:25.513Z,30.86
2018-07-26T18:22:57.572Z,30.73
2018-07-26T18:25:24.887Z,30.56
2018-07-26T18:27:52.162Z,30.55
2018-07-26T18:30:19.389Z,30.57
2018-07-26T18:32:46.597Z,30.56
2018-07-26T18:35:13.801Z,30.50
2018-07-26T18:37:41.158Z,30.36
2018-07-26T18:40:08.476Z,30.37
2018-07-26T18:42:39.785Z,30.38
2018-07-26T18:45:08.162Z,30.24
2018-07-26T18:47:35.521Z,30.20
2018-07-26T18:50:02.843Z,30.16
2018-07-26T18:52:30.163Z,30.11
2018-07-26T18:54:57.448Z,30.10
2018-07-26T18:57:25.017Z,30.02
2018-07-26T18:59:52.258Z,29.92
2018-07-26T19:02:20.297Z,29.84
2018-07-26T19:04:48.021Z,29.76
2018-07-26T19:07:15.217Z,29.69
2018-07-26T19:09:42.445Z,29.65
2018-07-26T19:12:09.792Z,29.56
2018-07-26T19:14:37.050Z,29.39
2018-07-26T19:17:04.749Z,29.27
2018-07-26T19:19:32.018Z,29.15
2018-07-26T19:22:04.816Z,29.01
2018-07-26T19:24:32.034Z,28.91
2018-07-26T19:26:59.288Z,28.86
2018-07-26T19:29:26.567Z,28.72
2018-07-26T19:31:53.754Z,28.65
2018-07-26T19:34:21.227Z,28.59
2018-07-26T19:36:48.522Z,28.55
2018-07-26T19:39:15.769Z,28.51
2018-07-26T19:41:43.094Z,28.42
2018-07-26T19:44:14.781Z,28.31
2018-07-26T19:46:42.083Z,28.29
2018-07-26T19:49:09.313Z,28.27
2018-07-26T19:51:36.699Z,28.24
2018-07-26T19:54:04.042Z,28.18
2018-07-26T19:56:31.210Z,28.10
2018-07-26T19:58:58.473Z,28.00
2018-07-26T20:01:25.668Z,27.92
2018-07-26T20:03:52.915Z,27.88
2018-07-26T20:06:20.275Z,27.79
2018-07-26T20:08:47.536Z,27.67
2018-07-26T20:11:14.805Z,27.51
2018-07-26T20:13:42.116Z,27.42
2018-07-26T20:16:09.426Z,27.27
2018-07-26T20:18:36.717Z,27.06
2018-07-26T20:21:04.010Z,26.90
2018-07-26T20:23:31.264Z,26.77
2018-07-26T20:25:58.644Z,26.76
2018-07-26T20:28:25.861Z,26.67
2018-07-26T20:30:53.126Z,26.45
2018-07-26T20:33:20.404Z,26.41
2018-07-26T20:35:47.627Z,26.27
2018-07-26T20:38:16.002Z,26.24
2018-07-26T20:40:43.313Z,26.14
2018-07-26T20:43:10.627Z,26.01
2018-07-26T20:45:38.001Z,25.91
2018-07-26T20:48:05.338Z,25.85
2018-07-26T20:50:32.634Z,25.79
2018-07-26T20:53:00.004Z,25.70
2018-07-26T20:55:27.272Z,25.70
2018-07-26T20:57:54.525Z,25.61
2018-07-26T21:00:21.805Z,25.60
2018-07-26T21:02:49.141Z,25.50
2018-07-26T21:05:16.439Z,25.54
2018-07-26T21:07:43.679Z,25.41
2018-07-26T21:10:10.979Z,25.38
2018-07-26T21:12:38.260Z,25.30
2018-07-26T21:15:06.519Z,25.21
2018-07-26T21:17:33.741Z,25.09
2018-07-26T21:20:01.008Z,24.70
2018-07-26T21:22:28.892Z,24.96
2018-07-26T21:24:56.232Z,24.87
2018-07-26T21:27:23.436Z,24.76
2018-07-26T21:29:50.629Z,24.74
2018-07-26T21:32:17.861Z,24.64
2018-07-26T21:34:45.110Z,24.60
2018-07-26T21:37:12.557Z,24.62
2018-07-26T21:39:39.816Z,24.58
2018-07-26T21:42:07.150Z,24.50
2018-07-26T21:44:34.407Z,24.45
2018-07-26T21:47:01.643Z,24.43
2018-07-26T21:49:28.929Z,24.37
2018-07-26T21:51:56.217Z,24.32
2018-07-26T21:54:23.493Z,24.25
2018-07-26T21:56:50.763Z,24.18
2018-07-26T21:59:18.005Z,24.00
2018-07-26T22:01:45.377Z,24.03
2018-07-26T22:04:12.737Z,23.96
2018-07-26T22:06:39.952Z,23.91
2018-07-26T22:09:08.798Z,23.91
2018-07-26T22:11:36.130Z,23.79
2018-07-26T22:14:03.333Z,23.72
2018-07-26T22:16:30.770Z,23.71
2018-07-26T22:18:58.004Z,23.63
2018-07-26T22:21:25.226Z,23.61
2018-07-26T22:23:52.438Z,23.55
2018-07-26T22:26:19.646Z,23.42
2018-07-26T22:28:46.877Z,23.36
2018-07-26T22:31:14.101Z,23.36
2018-07-26T22:33:41.306Z,23.32
2018-07-26T22:36:08.681Z,23.31
2018-07-26T22:38:35.954Z,23.21
2018-07-26T22:41:03.358Z,23.18
2018-07-26T22:43:30.608Z,23.20
2018-07-26T22:45:57.899Z,23.15
2018-07-26T22:48:25.176Z,23.09
2018-07-26T22:50:52.414Z,23.08
2018-07-26T22:53:19.644Z,22.95
2018-07-26T22:55:46.905Z,22.97
2018-07-26T22:58:14.153Z,22.92
2018-07-26T23:00:41.323Z,22.87
2018-07-26T23:03:08.525Z,22.85
2018-07-26T23:05:35.738Z,22.74
2018-07-26T23:08:03.093Z,22.70
2018-07-26T23:10:30.319Z,22.69
2018-07-26T23:12:57.979Z,22.67
2018-07-26T23:15:25.396Z,22.54
2018-07-26T23:17:52.555Z,22.55
2018-07-26T23:20:19.817Z,22.53
2018-07-26T23:22:51.107Z,22.38
2018-07-26T23:25:18.537Z,22.41
2018-07-26T23:27:45.826Z,22.40
2018-07-26T23:30:13.429Z,22.37
2018-07-26T23:32:40.870Z,22.34
2018-07-26T23:35:08.483Z,22.27
2018-07-26T23:37:35.949Z,22.26
2018-07-26T23:40:03.890Z,22.26
2018-07-26T23:42:31.071Z,22.15
2018-07-26T23:44:58.349Z,22.19
2018-07-26T23:47:25.637Z,22.17
2018-07-26T23:49:52.799Z,22.13
2018-07-26T23:52:20.024Z,22.11
2018-07-26T23:54:47.256Z,22.13
2018-07-26T23:57:14.498Z,22.08
2018-07-26T23:59:41.743Z,22.01
